This is the latest recevied weather packets stored in our database for station/object IU3NMQ-10. If no packets are shown the sender has not sent any weather packets the latest 10 day(s).
| Time | Temp. | Humidity | Pressure | Rain* | Wind** | Luminosity | Snow |
|---|---|---|---|---|---|---|---|
| 1777717566 | 27.22° C | 30% | 1020.3 hPa | - | - | - | - |
| 1777716665 | 27.22° C | 30% | 1020.4 hPa | - | - | - | - |
| 1777715765 | 26.11° C | 31% | 1020.7 hPa | - | - | - | - |
| 1777714865 | 25.56° C | 33% | 1020.9 hPa | - | - | - | - |
| 1777713965 | 26.11° C | 32% | 1021 hPa | - | - | - | - |
| 1777713065 | 25.56° C | 34% | 1021.1 hPa | - | - | - | - |
| 1777712165 | 25° C | 35% | 1021.4 hPa | - | - | - | - |
| 1777711298 | 23.89° C | 36% | 1021.5 hPa | - | - | - | - |
| 1777711265 | 23.89° C | 36% | 1021.5 hPa | - | - | - | - |
| 1777710842 | 23.33° C | 38% | 1021.5 hPa | - | - | - | - |
| 1777710364 | 23.33° C | 38% | 1021.5 hPa | - | - | - | - |
| 1777709464 | 22.78° C | 38% | 1021.7 hPa | - | - | - | - |
| 1777708708 | 22.22° C | 39% | 1021.8 hPa | - | - | - | - |
| 1777708564 | 22.22° C | 39% | 1021.8 hPa | - | - | - | - |
| 1777707664 | 21.67° C | 41% | 1022 hPa | - | - | - | - |
| 1777706957 | 20.56° C | 42% | 1022.1 hPa | - | - | - | - |
| 1777706764 | 20.56° C | 42% | 1022.1 hPa | - | - | - | - |
| 1777705864 | 20° C | 43% | 1022.3 hPa | - | - | - | - |
| 1777704964 | 19.44° C | 47% | 1022.3 hPa | - | - | - | - |
| 1777704064 | 18.33° C | 50% | 1022.4 hPa | - | - | - | - |
| 1777703164 | 17.78° C | 51% | 1022.5 hPa | - | - | - | - |
| 1777702263 | 17.22° C | 52% | 1022.5 hPa | - | - | - | - |
| 1777701363 | 16.11° C | 53% | 1022.6 hPa | - | - | - | - |
| 1777700463 | 15.56° C | 54% | 1022.6 hPa | - | - | - | - |
| 1777699563 | 15° C | 55% | 1022.7 hPa | - | - | - | - |
* Rain since midnight (hover to see other rain measurements)
** Current wind speed in m/s (hover to see current wind gust speed)